sensor_id;sensor_type;location;lat;lon;timestamp;P1;durP1;ratioP1;P2;durP2;ratioP2
11675;SDS011;5894;42.768;23.404;2023-06-24T00:02:21;8.40;;;7.70;;
11675;SDS011;5894;42.768;23.404;2023-06-24T00:04:49;8.48;;;7.53;;
11675;SDS011;5894;42.768;23.404;2023-06-24T00:07:17;8.57;;;7.68;;
11675;SDS011;5894;42.768;23.404;2023-06-24T00:09:47;8.80;;;7.90;;
11675;SDS011;5894;42.768;23.404;2023-06-24T00:12:16;8.80;;;7.93;;
11675;SDS011;5894;42.768;23.404;2023-06-24T00:14:44;8.00;;;7.30;;
11675;SDS011;5894;42.768;23.404;2023-06-24T00:17:12;9.40;;;8.45;;
11675;SDS011;5894;42.768;23.404;2023-06-24T00:19:39;9.70;;;8.40;;
11675;SDS011;5894;42.768;23.404;2023-06-24T00:22:06;10.43;;;9.20;;
11675;SDS011;5894;42.768;23.404;2023-06-24T00:24:33;9.75;;;8.75;;
11675;SDS011;5894;42.768;23.404;2023-06-24T00:27:00;11.27;;;9.48;;
11675;SDS011;5894;42.768;23.404;2023-06-24T00:29:28;10.07;;;9.07;;
11675;SDS011;5894;42.768;23.404;2023-06-24T00:31:55;10.55;;;9.10;;
11675;SDS011;5894;42.768;23.404;2023-06-24T00:34:22;10.25;;;8.70;;
11675;SDS011;5894;42.768;23.404;2023-06-24T00:36:51;9.45;;;8.48;;
11675;SDS011;5894;42.768;23.404;2023-06-24T00:39:18;8.95;;;8.13;;
11675;SDS011;5894;42.768;23.404;2023-06-24T00:41:45;11.60;;;9.18;;
11675;SDS011;5894;42.768;23.404;2023-06-24T00:44:12;9.52;;;8.68;;
11675;SDS011;5894;42.768;23.404;2023-06-24T00:46:42;11.32;;;8.82;;
11675;SDS011;5894;42.768;23.404;2023-06-24T00:49:09;9.50;;;8.60;;
11675;SDS011;5894;42.768;23.404;2023-06-24T00:51:40;9.80;;;8.80;;
11675;SDS011;5894;42.768;23.404;2023-06-24T00:54:12;10.10;;;9.05;;
11675;SDS011;5894;42.768;23.404;2023-06-24T00:56:39;12.38;;;9.07;;
11675;SDS011;5894;42.768;23.404;2023-06-24T00:59:08;10.68;;;9.52;;
11675;SDS011;5894;42.768;23.404;2023-06-24T01:01:39;12.25;;;9.55;;
11675;SDS011;5894;42.768;23.404;2023-06-24T01:04:09;10.95;;;9.85;;
11675;SDS011;5894;42.768;23.404;2023-06-24T01:06:36;11.23;;;9.75;;
11675;SDS011;5894;42.768;23.404;2023-06-24T01:09:08;11.32;;;10.23;;
11675;SDS011;5894;42.768;23.404;2023-06-24T01:11:35;14.48;;;10.13;;
11675;SDS011;5894;42.768;23.404;2023-06-24T01:14:02;12.50;;;10.40;;
11675;SDS011;5894;42.768;23.404;2023-06-24T01:16:32;14.13;;;11.30;;
11675;SDS011;5894;42.768;23.404;2023-06-24T01:19:08;13.25;;;11.82;;
11675;SDS011;5894;42.768;23.404;2023-06-24T01:21:58;12.85;;;11.27;;
11675;SDS011;5894;42.768;23.404;2023-06-24T01:24:48;12.93;;;11.38;;
11675;SDS011;5894;42.768;23.404;2023-06-24T01:30:31;13.38;;;10.90;;
11675;SDS011;5894;42.768;23.404;2023-06-24T01:33:11;11.20;;;10.18;;
11675;SDS011;5894;42.768;23.404;2023-06-24T01:35:47;13.85;;;10.68;;
11675;SDS011;5894;42.768;23.404;2023-06-24T01:38:15;11.15;;;10.15;;
11675;SDS011;5894;42.768;23.404;2023-06-24T01:40:49;12.90;;;10.82;;
11675;SDS011;5894;42.768;23.404;2023-06-24T01:43:18;11.57;;;10.48;;
11675;SDS011;5894;42.768;23.404;2023-06-24T01:45:48;12.48;;;11.27;;
11675;SDS011;5894;42.768;23.404;2023-06-24T01:48:21;12.38;;;11.07;;
11675;SDS011;5894;42.768;23.404;2023-06-24T01:50:55;17.85;;;11.32;;
11675;SDS011;5894;42.768;23.404;2023-06-24T01:53:26;13.52;;;10.52;;
11675;SDS011;5894;42.768;23.404;2023-06-24T01:55:55;12.85;;;10.55;;
11675;SDS011;5894;42.768;23.404;2023-06-24T01:58:25;12.68;;;11.48;;
11675;SDS011;5894;42.768;23.404;2023-06-24T02:00:52;13.20;;;10.80;;
11675;SDS011;5894;42.768;23.404;2023-06-24T02:03:23;13.27;;;11.43;;
11675;SDS011;5894;42.768;23.404;2023-06-24T02:05:52;12.50;;;11.05;;
11675;SDS011;5894;42.768;23.404;2023-06-24T02:08:20;12.05;;;10.85;;
11675;SDS011;5894;42.768;23.404;2023-06-24T02:10:51;14.20;;;10.70;;
11675;SDS011;5894;42.768;23.404;2023-06-24T02:13:19;12.27;;;10.90;;
11675;SDS011;5894;42.768;23.404;2023-06-24T02:15:47;14.35;;;11.38;;
11675;SDS011;5894;42.768;23.404;2023-06-24T02:18:16;11.77;;;10.73;;
11675;SDS011;5894;42.768;23.404;2023-06-24T02:20:45;11.38;;;10.25;;
11675;SDS011;5894;42.768;23.404;2023-06-24T02:23:17;11.55;;;10.05;;
11675;SDS011;5894;42.768;23.404;2023-06-24T02:25:45;13.48;;;10.70;;
11675;SDS011;5894;42.768;23.404;2023-06-24T02:28:13;11.95;;;10.50;;
11675;SDS011;5894;42.768;23.404;2023-06-24T02:30:41;11.13;;;9.80;;
11675;SDS011;5894;42.768;23.404;2023-06-24T02:33:10;12.20;;;10.23;;
11675;SDS011;5894;42.768;23.404;2023-06-24T02:35:37;12.32;;;10.40;;
11675;SDS011;5894;42.768;23.404;2023-06-24T02:38:08;12.18;;;9.90;;
11675;SDS011;5894;42.768;23.404;2023-06-24T02:40:35;11.68;;;10.48;;
11675;SDS011;5894;42.768;23.404;2023-06-24T02:43:03;11.75;;;10.65;;
11675;SDS011;5894;42.768;23.404;2023-06-24T02:45:30;11.80;;;10.65;;
11675;SDS011;5894;42.768;23.404;2023-06-24T02:47:57;12.88;;;10.77;;
11675;SDS011;5894;42.768;23.404;2023-06-24T02:50:26;11.75;;;10.68;;
11675;SDS011;5894;42.768;23.404;2023-06-24T02:52:54;11.32;;;10.20;;
11675;SDS011;5894;42.768;23.404;2023-06-24T02:55:28;11.88;;;10.75;;
11675;SDS011;5894;42.768;23.404;2023-06-24T02:58:02;12.10;;;10.90;;
11675;SDS011;5894;42.768;23.404;2023-06-24T03:01:05;12.50;;;11.20;;
11675;SDS011;5894;42.768;23.404;2023-06-24T03:03:47;12.30;;;11.02;;
11675;SDS011;5894;42.768;23.404;2023-06-24T03:06:16;15.10;;;11.57;;
11675;SDS011;5894;42.768;23.404;2023-06-24T03:08:44;11.95;;;10.70;;
11675;SDS011;5894;42.768;23.404;2023-06-24T03:11:14;11.65;;;10.45;;
11675;SDS011;5894;42.768;23.404;2023-06-24T03:13:41;11.45;;;10.25;;
11675;SDS011;5894;42.768;23.404;2023-06-24T03:16:15;13.27;;;10.38;;
11675;SDS011;5894;42.768;23.404;2023-06-24T03:18:55;11.25;;;10.05;;
11675;SDS011;5894;42.768;23.404;2023-06-24T03:21:22;12.80;;;10.57;;
11675;SDS011;5894;42.768;23.404;2023-06-24T03:23:54;12.70;;;10.70;;
11675;SDS011;5894;42.768;23.404;2023-06-24T03:26:23;12.27;;;10.98;;
11675;SDS011;5894;42.768;23.404;2023-06-24T03:28:51;13.93;;;11.00;;
11675;SDS011;5894;42.768;23.404;2023-06-24T03:31:18;12.70;;;11.35;;
11675;SDS011;5894;42.768;23.404;2023-06-24T03:33:49;13.38;;;12.07;;
11675;SDS011;5894;42.768;23.404;2023-06-24T03:36:16;16.55;;;12.35;;
11675;SDS011;5894;42.768;23.404;2023-06-24T03:38:43;11.95;;;10.85;;
11675;SDS011;5894;42.768;23.404;2023-06-24T03:41:10;11.88;;;10.68;;
11675;SDS011;5894;42.768;23.404;2023-06-24T03:43:39;12.15;;;10.95;;
11675;SDS011;5894;42.768;23.404;2023-06-24T03:46:07;11.65;;;10.45;;
11675;SDS011;5894;42.768;23.404;2023-06-24T03:48:34;13.70;;;11.27;;
11675;SDS011;5894;42.768;23.404;2023-06-24T03:51:02;12.07;;;10.88;;
11675;SDS011;5894;42.768;23.404;2023-06-24T03:53:30;11.70;;;10.70;;
11675;SDS011;5894;42.768;23.404;2023-06-24T03:55:58;12.40;;;11.20;;
11675;SDS011;5894;42.768;23.404;2023-06-24T03:58:26;12.60;;;11.30;;
11675;SDS011;5894;42.768;23.404;2023-06-24T04:00:54;12.07;;;10.93;;
11675;SDS011;5894;42.768;23.404;2023-06-24T04:03:24;12.00;;;10.80;;
11675;SDS011;5894;42.768;23.404;2023-06-24T04:05:52;12.35;;;11.25;;
11675;SDS011;5894;42.768;23.404;2023-06-24T04:08:21;14.13;;;12.80;;
11675;SDS011;5894;42.768;23.404;2023-06-24T04:10:50;15.18;;;12.95;;
11675;SDS011;5894;42.768;23.404;2023-06-24T04:13:17;15.98;;;13.35;;
11675;SDS011;5894;42.768;23.404;2023-06-24T04:15:44;16.00;;;13.77;;
11675;SDS011;5894;42.768;23.404;2023-06-24T04:18:13;15.23;;;13.20;;
11675;SDS011;5894;42.768;23.404;2023-06-24T04:20:40;14.25;;;12.70;;
11675;SDS011;5894;42.768;23.404;2023-06-24T04:23:07;13.85;;;12.30;;
11675;SDS011;5894;42.768;23.404;2023-06-24T04:25:36;15.73;;;12.80;;
11675;SDS011;5894;42.768;23.404;2023-06-24T04:28:03;13.63;;;12.32;;
11675;SDS011;5894;42.768;23.404;2023-06-24T04:30:31;14.15;;;12.60;;
11675;SDS011;5894;42.768;23.404;2023-06-24T04:33:01;15.68;;;12.73;;
11675;SDS011;5894;42.768;23.404;2023-06-24T04:35:30;17.90;;;13.05;;
11675;SDS011;5894;42.768;23.404;2023-06-24T04:37:57;14.77;;;13.30;;
11675;SDS011;5894;42.768;23.404;2023-06-24T04:40:24;16.85;;;14.10;;
11675;SDS011;5894;42.768;23.404;2023-06-24T04:42:51;19.13;;;13.82;;
11675;SDS011;5894;42.768;23.404;2023-06-24T04:45:18;15.02;;;13.50;;
11675;SDS011;5894;42.768;23.404;2023-06-24T04:47:46;17.20;;;15.30;;
11675;SDS011;5894;42.768;23.404;2023-06-24T04:50:13;16.58;;;14.77;;
11675;SDS011;5894;42.768;23.404;2023-06-24T04:52:41;17.98;;;14.15;;
11675;SDS011;5894;42.768;23.404;2023-06-24T04:55:10;15.07;;;13.18;;
11675;SDS011;5894;42.768;23.404;2023-06-24T04:57:37;15.48;;;13.98;;
11675;SDS011;5894;42.768;23.404;2023-06-24T05:00:04;16.90;;;14.63;;
11675;SDS011;5894;42.768;23.404;2023-06-24T05:02:32;18.45;;;13.50;;
11675;SDS011;5894;42.768;23.404;2023-06-24T05:04:59;15.88;;;14.20;;
11675;SDS011;5894;42.768;23.404;2023-06-24T05:07:26;14.02;;;12.48;;
11675;SDS011;5894;42.768;23.404;2023-06-24T05:09:54;14.55;;;13.15;;
11675;SDS011;5894;42.768;23.404;2023-06-24T05:12:21;17.15;;;13.07;;
11675;SDS011;5894;42.768;23.404;2023-06-24T05:14:49;15.95;;;12.32;;
11675;SDS011;5894;42.768;23.404;2023-06-24T05:17:18;15.93;;;13.05;;
11675;SDS011;5894;42.768;23.404;2023-06-24T05:19:45;13.02;;;11.73;;
11675;SDS011;5894;42.768;23.404;2023-06-24T05:22:12;13.07;;;10.50;;
11675;SDS011;5894;42.768;23.404;2023-06-24T05:24:39;12.75;;;11.50;;
11675;SDS011;5894;42.768;23.404;2023-06-24T05:27:08;13.40;;;11.35;;
11675;SDS011;5894;42.768;23.404;2023-06-24T05:29:35;12.48;;;11.27;;
11675;SDS011;5894;42.768;23.404;2023-06-24T05:32:02;12.20;;;10.88;;
11675;SDS011;5894;42.768;23.404;2023-06-24T05:34:30;13.40;;;12.00;;
11675;SDS011;5894;42.768;23.404;2023-06-24T05:36:59;12.35;;;11.15;;
11675;SDS011;5894;42.768;23.404;2023-06-24T05:39:26;13.20;;;10.75;;
11675;SDS011;5894;42.768;23.404;2023-06-24T05:41:53;11.45;;;10.25;;
11675;SDS011;5894;42.768;23.404;2023-06-24T05:44:21;10.88;;;9.85;;
11675;SDS011;5894;42.768;23.404;2023-06-24T05:46:49;12.02;;;10.07;;
11675;SDS011;5894;42.768;23.404;2023-06-24T05:49:16;10.32;;;9.43;;
11675;SDS011;5894;42.768;23.404;2023-06-24T05:51:43;13.10;;;10.32;;
11675;SDS011;5894;42.768;23.404;2023-06-24T05:54:10;11.38;;;9.35;;
11675;SDS011;5894;42.768;23.404;2023-06-24T05:56:37;13.68;;;10.10;;
11675;SDS011;5894;42.768;23.404;2023-06-24T05:59:04;11.95;;;10.05;;
11675;SDS011;5894;42.768;23.404;2023-06-24T06:01:32;10.70;;;9.70;;
11675;SDS011;5894;42.768;23.404;2023-06-24T06:03:59;11.30;;;9.98;;
11675;SDS011;5894;42.768;23.404;2023-06-24T06:06:26;11.82;;;10.10;;
11675;SDS011;5894;42.768;23.404;2023-06-24T06:08:53;11.10;;;10.10;;
11675;SDS011;5894;42.768;23.404;2023-06-24T06:11:20;15.50;;;10.82;;
11675;SDS011;5894;42.768;23.404;2023-06-24T06:13:47;12.10;;;10.90;;
11675;SDS011;5894;42.768;23.404;2023-06-24T06:16:14;12.52;;;11.23;;
11675;SDS011;5894;42.768;23.404;2023-06-24T06:18:43;12.98;;;10.48;;
11675;SDS011;5894;42.768;23.404;2023-06-24T06:21:10;11.88;;;10.32;;
11675;SDS011;5894;42.768;23.404;2023-06-24T06:23:38;13.23;;;10.45;;
11675;SDS011;5894;42.768;23.404;2023-06-24T06:26:05;12.05;;;10.70;;
11675;SDS011;5894;42.768;23.404;2023-06-24T06:28:32;10.82;;;9.70;;
11675;SDS011;5894;42.768;23.404;2023-06-24T06:30:59;13.68;;;10.88;;
11675;SDS011;5894;42.768;23.404;2023-06-24T06:33:26;14.85;;;9.55;;
11675;SDS011;5894;42.768;23.404;2023-06-24T06:35:54;11.27;;;8.55;;
11675;SDS011;5894;42.768;23.404;2023-06-24T06:38:21;9.88;;;9.00;;
11675;SDS011;5894;42.768;23.404;2023-06-24T06:40:49;9.70;;;8.70;;
11675;SDS011;5894;42.768;23.404;2023-06-24T06:43:16;11.07;;;8.50;;
11675;SDS011;5894;42.768;23.404;2023-06-24T06:45:43;9.43;;;8.40;;
11675;SDS011;5894;42.768;23.404;2023-06-24T06:48:10;9.60;;;8.77;;
11675;SDS011;5894;42.768;23.404;2023-06-24T06:50:37;9.13;;;8.23;;
11675;SDS011;5894;42.768;23.404;2023-06-24T06:53:05;11.05;;;8.77;;
11675;SDS011;5894;42.768;23.404;2023-06-24T06:55:32;10.68;;;8.73;;
11675;SDS011;5894;42.768;23.404;2023-06-24T06:57:59;9.60;;;8.10;;
11675;SDS011;5894;42.768;23.404;2023-06-24T07:00:26;8.80;;;8.07;;
11675;SDS011;5894;42.768;23.404;2023-06-24T07:02:53;8.75;;;7.95;;
11675;SDS011;5894;42.768;23.404;2023-06-24T07:05:20;8.38;;;7.65;;
11675;SDS011;5894;42.768;23.404;2023-06-24T07:07:47;8.93;;;8.15;;
11675;SDS011;5894;42.768;23.404;2023-06-24T07:10:16;9.00;;;8.10;;
11675;SDS011;5894;42.768;23.404;2023-06-24T07:12:43;8.15;;;7.35;;
11675;SDS011;5894;42.768;23.404;2023-06-24T07:15:12;9.73;;;7.82;;
11675;SDS011;5894;42.768;23.404;2023-06-24T07:17:39;8.48;;;7.68;;
11675;SDS011;5894;42.768;23.404;2023-06-24T07:20:07;8.95;;;8.18;;
11675;SDS011;5894;42.768;23.404;2023-06-24T07:22:34;8.30;;;7.60;;
11675;SDS011;5894;42.768;23.404;2023-06-24T07:25:01;13.20;;;12.00;;
11675;SDS011;5894;42.768;23.404;2023-06-24T07:27:30;13.90;;;9.30;;
11675;SDS011;5894;42.768;23.404;2023-06-24T07:29:57;8.93;;;8.02;;
11675;SDS011;5894;42.768;23.404;2023-06-24T07:32:24;9.32;;;8.20;;
11675;SDS011;5894;42.768;23.404;2023-06-24T07:34:51;9.05;;;7.75;;
11675;SDS011;5894;42.768;23.404;2023-06-24T07:37:18;8.35;;;7.55;;
11675;SDS011;5894;42.768;23.404;2023-06-24T07:39:45;8.20;;;7.45;;
11675;SDS011;5894;42.768;23.404;2023-06-24T07:42:12;8.57;;;7.82;;
11675;SDS011;5894;42.768;23.404;2023-06-24T07:44:45;8.50;;;7.70;;
11675;SDS011;5894;42.768;23.404;2023-06-24T07:47:12;8.68;;;7.63;;
11675;SDS011;5894;42.768;23.404;2023-06-24T07:49:39;8.13;;;7.43;;
11675;SDS011;5894;42.768;23.404;2023-06-24T07:52:06;8.55;;;7.70;;
11675;SDS011;5894;42.768;23.404;2023-06-24T07:54:33;8.25;;;7.47;;
11675;SDS011;5894;42.768;23.404;2023-06-24T07:57:01;8.07;;;7.28;;
11675;SDS011;5894;42.768;23.404;2023-06-24T07:59:28;8.43;;;7.60;;
11675;SDS011;5894;42.768;23.404;2023-06-24T08:01:56;8.70;;;7.93;;
11675;SDS011;5894;42.768;23.404;2023-06-24T08:04:23;8.70;;;7.80;;
11675;SDS011;5894;42.768;23.404;2023-06-24T08:06:50;9.25;;;7.97;;
11675;SDS011;5894;42.768;23.404;2023-06-24T08:09:18;8.20;;;7.40;;
11675;SDS011;5894;42.768;23.404;2023-06-24T08:11:45;10.05;;;8.05;;
11675;SDS011;5894;42.768;23.404;2023-06-24T08:14:12;12.63;;;9.25;;
11675;SDS011;5894;42.768;23.404;2023-06-24T08:16:40;10.27;;;8.52;;
11675;SDS011;5894;42.768;23.404;2023-06-24T08:19:08;9.75;;;8.57;;
11675;SDS011;5894;42.768;23.404;2023-06-24T08:21:35;9.00;;;7.43;;
11675;SDS011;5894;42.768;23.404;2023-06-24T08:24:03;9.23;;;7.72;;
11675;SDS011;5894;42.768;23.404;2023-06-24T08:26:30;7.95;;;7.25;;
11675;SDS011;5894;42.768;23.404;2023-06-24T08:28:57;8.13;;;7.32;;
11675;SDS011;5894;42.768;23.404;2023-06-24T08:31:25;7.82;;;7.13;;
11675;SDS011;5894;42.768;23.404;2023-06-24T08:33:52;8.23;;;7.43;;
11675;SDS011;5894;42.768;23.404;2023-06-24T08:36:22;8.40;;;7.60;;
11675;SDS011;5894;42.768;23.404;2023-06-24T08:38:50;8.88;;;7.50;;
11675;SDS011;5894;42.768;23.404;2023-06-24T08:41:17;7.70;;;7.00;;
11675;SDS011;5894;42.768;23.404;2023-06-24T08:43:44;8.07;;;7.30;;
11675;SDS011;5894;42.768;23.404;2023-06-24T08:46:11;8.65;;;7.78;;
11675;SDS011;5894;42.768;23.404;2023-06-24T08:48:39;10.27;;;7.38;;
11675;SDS011;5894;42.768;23.404;2023-06-24T08:51:08;8.23;;;7.43;;
11675;SDS011;5894;42.768;23.404;2023-06-24T08:53:39;7.80;;;7.20;;
11675;SDS011;5894;42.768;23.404;2023-06-24T08:56:09;7.85;;;7.15;;
11675;SDS011;5894;42.768;23.404;2023-06-24T08:58:37;8.10;;;7.40;;
11675;SDS011;5894;42.768;23.404;2023-06-24T09:01:04;7.93;;;7.32;;
11675;SDS011;5894;42.768;23.404;2023-06-24T09:03:33;12.38;;;9.55;;
11675;SDS011;5894;42.768;23.404;2023-06-24T09:06:00;13.93;;;10.35;;
11675;SDS011;5894;42.768;23.404;2023-06-24T09:08:28;24.58;;;15.60;;
11675;SDS011;5894;42.768;23.404;2023-06-24T09:10:56;15.70;;;11.07;;
11675;SDS011;5894;42.768;23.404;2023-06-24T09:13:27;11.18;;;8.50;;
11675;SDS011;5894;42.768;23.404;2023-06-24T09:16:08;8.80;;;8.00;;
11675;SDS011;5894;42.768;23.404;2023-06-24T09:18:39;8.55;;;7.78;;
11675;SDS011;5894;42.768;23.404;2023-06-24T09:21:07;28.25;;;9.02;;
11675;SDS011;5894;42.768;23.404;2023-06-24T09:23:35;11.77;;;7.68;;
11675;SDS011;5894;42.768;23.404;2023-06-24T09:26:05;11.07;;;8.32;;
11675;SDS011;5894;42.768;23.404;2023-06-24T09:28:37;8.27;;;7.57;;
11675;SDS011;5894;42.768;23.404;2023-06-24T09:31:08;8.75;;;8.05;;
11675;SDS011;5894;42.768;23.404;2023-06-24T09:33:36;8.57;;;7.78;;
11675;SDS011;5894;42.768;23.404;2023-06-24T09:36:06;15.13;;;9.02;;
11675;SDS011;5894;42.768;23.404;2023-06-24T09:38:34;18.55;;;13.25;;
11675;SDS011;5894;42.768;23.404;2023-06-24T09:41:02;14.15;;;9.95;;
11675;SDS011;5894;42.768;23.404;2023-06-24T09:43:31;9.20;;;8.30;;
11675;SDS011;5894;42.768;23.404;2023-06-24T09:46:01;8.70;;;7.90;;
11675;SDS011;5894;42.768;23.404;2023-06-24T09:48:28;11.65;;;7.80;;
11675;SDS011;5894;42.768;23.404;2023-06-24T09:50:55;8.85;;;7.90;;
11675;SDS011;5894;42.768;23.404;2023-06-24T09:53:26;10.18;;;7.50;;
11675;SDS011;5894;42.768;23.404;2023-06-24T09:55:56;10.10;;;7.50;;
11675;SDS011;5894;42.768;23.404;2023-06-24T09:58:25;8.63;;;7.80;;
11675;SDS011;5894;42.768;23.404;2023-06-24T10:00:56;9.07;;;7.70;;
11675;SDS011;5894;42.768;23.404;2023-06-24T10:03:28;9.50;;;8.02;;
11675;SDS011;5894;42.768;23.404;2023-06-24T10:05:55;10.68;;;7.78;;
11675;SDS011;5894;42.768;23.404;2023-06-24T10:08:23;8.55;;;7.70;;
11675;SDS011;5894;42.768;23.404;2023-06-24T10:10:50;8.65;;;7.78;;
11675;SDS011;5894;42.768;23.404;2023-06-24T10:13:17;9.35;;;8.32;;
11675;SDS011;5894;42.768;23.404;2023-06-24T10:15:45;9.00;;;7.32;;
11675;SDS011;5894;42.768;23.404;2023-06-24T10:21:03;8.88;;;7.97;;
11675;SDS011;5894;42.768;23.404;2023-06-24T10:23:32;8.77;;;7.72;;
11675;SDS011;5894;42.768;23.404;2023-06-24T10:26:00;9.82;;;7.80;;
11675;SDS011;5894;42.768;23.404;2023-06-24T10:28:31;9.20;;;7.28;;
11675;SDS011;5894;42.768;23.404;2023-06-24T10:34:30;8.98;;;8.02;;
11675;SDS011;5894;42.768;23.404;2023-06-24T10:36:59;10.88;;;7.80;;
11675;SDS011;5894;42.768;23.404;2023-06-24T10:39:37;8.30;;;7.53;;
11675;SDS011;5894;42.768;23.404;2023-06-24T10:44:59;8.05;;;7.35;;
11675;SDS011;5894;42.768;23.404;2023-06-24T10:47:27;9.15;;;8.25;;
11675;SDS011;5894;42.768;23.404;2023-06-24T10:49:56;8.52;;;7.72;;
11675;SDS011;5894;42.768;23.404;2023-06-24T10:52:23;8.65;;;7.82;;
11675;SDS011;5894;42.768;23.404;2023-06-24T10:54:51;7.82;;;6.90;;
11675;SDS011;5894;42.768;23.404;2023-06-24T10:57:22;8.35;;;7.65;;
11675;SDS011;5894;42.768;23.404;2023-06-24T10:59:51;8.43;;;7.50;;
11675;SDS011;5894;42.768;23.404;2023-06-24T11:02:19;8.25;;;7.50;;
11675;SDS011;5894;42.768;23.404;2023-06-24T11:04:48;8.30;;;7.45;;
11675;SDS011;5894;42.768;23.404;2023-06-24T11:07:18;7.55;;;6.85;;
11675;SDS011;5894;42.768;23.404;2023-06-24T11:09:49;7.43;;;6.70;;
11675;SDS011;5894;42.768;23.404;2023-06-24T11:12:17;6.82;;;6.22;;
11675;SDS011;5894;42.768;23.404;2023-06-24T11:14:44;7.78;;;6.90;;
11675;SDS011;5894;42.768;23.404;2023-06-24T11:17:11;8.80;;;7.07;;
11675;SDS011;5894;42.768;23.404;2023-06-24T11:19:38;7.97;;;7.28;;
11675;SDS011;5894;42.768;23.404;2023-06-24T11:22:06;7.70;;;7.00;;
11675;SDS011;5894;42.768;23.404;2023-06-24T11:24:35;7.90;;;7.18;;
11675;SDS011;5894;42.768;23.404;2023-06-24T11:27:04;7.85;;;6.68;;
11675;SDS011;5894;42.768;23.404;2023-06-24T11:29:32;8.27;;;7.32;;
11675;SDS011;5894;42.768;23.404;2023-06-24T11:32:00;8.20;;;7.50;;
11675;SDS011;5894;42.768;23.404;2023-06-24T11:34:28;8.80;;;7.63;;
11675;SDS011;5894;42.768;23.404;2023-06-24T11:36:56;8.10;;;7.30;;
11675;SDS011;5894;42.768;23.404;2023-06-24T11:39:23;8.57;;;7.70;;
11675;SDS011;5894;42.768;23.404;2023-06-24T11:41:52;9.00;;;8.10;;
11675;SDS011;5894;42.768;23.404;2023-06-24T11:44:20;9.30;;;7.30;;
11675;SDS011;5894;42.768;23.404;2023-06-24T11:46:50;7.97;;;7.10;;
11675;SDS011;5894;42.768;23.404;2023-06-24T11:49:18;8.85;;;7.28;;
11675;SDS011;5894;42.768;23.404;2023-06-24T11:51:46;8.07;;;7.28;;
11675;SDS011;5894;42.768;23.404;2023-06-24T11:54:14;7.57;;;6.80;;
11675;SDS011;5894;42.768;23.404;2023-06-24T11:56:49;8.18;;;7.07;;
11675;SDS011;5894;42.768;23.404;2023-06-24T11:59:19;8.52;;;7.50;;
11675;SDS011;5894;42.768;23.404;2023-06-24T12:01:52;8.20;;;7.45;;
11675;SDS011;5894;42.768;23.404;2023-06-24T12:04:20;7.88;;;7.10;;
11675;SDS011;5894;42.768;23.404;2023-06-24T12:06:48;9.60;;;6.88;;
11675;SDS011;5894;42.768;23.404;2023-06-24T12:09:15;9.18;;;6.95;;
11675;SDS011;5894;42.768;23.404;2023-06-24T12:11:43;15.85;;;7.40;;
11675;SDS011;5894;42.768;23.404;2023-06-24T12:14:10;8.10;;;6.47;;
11675;SDS011;5894;42.768;23.404;2023-06-24T12:16:39;7.15;;;6.00;;
11675;SDS011;5894;42.768;23.404;2023-06-24T12:19:06;6.88;;;6.25;;
11675;SDS011;5894;42.768;23.404;2023-06-24T12:21:34;7.78;;;6.90;;
11675;SDS011;5894;42.768;23.404;2023-06-24T12:24:01;7.93;;;7.13;;
11675;SDS011;5894;42.768;23.404;2023-06-24T12:26:28;7.53;;;6.82;;
11675;SDS011;5894;42.768;23.404;2023-06-24T12:28:55;8.90;;;7.38;;
11675;SDS011;5894;42.768;23.404;2023-06-24T12:31:22;8.13;;;6.80;;
11675;SDS011;5894;42.768;23.404;2023-06-24T12:33:51;7.57;;;6.75;;
11675;SDS011;5894;42.768;23.404;2023-06-24T12:36:18;7.75;;;7.05;;
11675;SDS011;5894;42.768;23.404;2023-06-24T12:38:46;12.68;;;7.22;;
11675;SDS011;5894;42.768;23.404;2023-06-24T12:41:13;12.45;;;8.18;;
11675;SDS011;5894;42.768;23.404;2023-06-24T12:43:40;8.70;;;7.85;;
11675;SDS011;5894;42.768;23.404;2023-06-24T12:46:07;8.63;;;7.82;;
11675;SDS011;5894;42.768;23.404;2023-06-24T12:48:34;10.00;;;8.35;;
11675;SDS011;5894;42.768;23.404;2023-06-24T12:51:02;8.45;;;7.65;;
11675;SDS011;5894;42.768;23.404;2023-06-24T12:53:30;8.55;;;7.75;;
11675;SDS011;5894;42.768;23.404;2023-06-24T12:55:56;10.70;;;8.20;;
11675;SDS011;5894;42.768;23.404;2023-06-24T12:58:23;8.18;;;7.38;;
11675;SDS011;5894;42.768;23.404;2023-06-24T13:00:51;8.13;;;7.43;;
11675;SDS011;5894;42.768;23.404;2023-06-24T13:03:18;10.40;;;8.02;;
11675;SDS011;5894;42.768;23.404;2023-06-24T13:05:45;8.65;;;7.90;;
11675;SDS011;5894;42.768;23.404;2023-06-24T13:08:13;9.13;;;7.82;;
11675;SDS011;5894;42.768;23.404;2023-06-24T13:10:41;8.40;;;7.28;;
11675;SDS011;5894;42.768;23.404;2023-06-24T13:13:08;8.43;;;7.60;;
11675;SDS011;5894;42.768;23.404;2023-06-24T13:15:35;10.00;;;7.78;;
11675;SDS011;5894;42.768;23.404;2023-06-24T13:18:03;8.75;;;7.85;;
11675;SDS011;5894;42.768;23.404;2023-06-24T13:20:30;9.07;;;7.85;;
11675;SDS011;5894;42.768;23.404;2023-06-24T13:22:57;8.80;;;8.00;;
11675;SDS011;5894;42.768;23.404;2023-06-24T13:25:25;45.65;;;9.77;;
11675;SDS011;5894;42.768;23.404;2023-06-24T13:27:52;23.70;;;6.80;;
11675;SDS011;5894;42.768;23.404;2023-06-24T13:30:19;175.43;;;17.65;;
11675;SDS011;5894;42.768;23.404;2023-06-24T16:09:58;13.75;;;10.68;;
11675;SDS011;5894;42.768;23.404;2023-06-24T16:12:25;14.65;;;10.65;;
11675;SDS011;5894;42.768;23.404;2023-06-24T16:14:52;17.02;;;10.77;;
11675;SDS011;5894;42.768;23.404;2023-06-24T16:17:19;14.55;;;10.88;;
11675;SDS011;5894;42.768;23.404;2023-06-24T16:19:47;22.10;;;13.32;;
11675;SDS011;5894;42.768;23.404;2023-06-24T16:22:14;19.45;;;14.50;;
11675;SDS011;5894;42.768;23.404;2023-06-24T16:24:41;16.17;;;11.38;;
11675;SDS011;5894;42.768;23.404;2023-06-24T16:27:09;15.57;;;12.18;;
11675;SDS011;5894;42.768;23.404;2023-06-24T16:29:36;15.68;;;11.90;;
11675;SDS011;5894;42.768;23.404;2023-06-24T16:32:03;13.40;;;10.77;;
11675;SDS011;5894;42.768;23.404;2023-06-24T16:34:30;15.70;;;11.15;;
11675;SDS011;5894;42.768;23.404;2023-06-24T16:36:57;15.63;;;11.85;;
11675;SDS011;5894;42.768;23.404;2023-06-24T16:39:24;21.05;;;12.80;;
11675;SDS011;5894;42.768;23.404;2023-06-24T16:41:51;15.07;;;12.13;;
11675;SDS011;5894;42.768;23.404;2023-06-24T16:44:21;16.33;;;12.40;;
11675;SDS011;5894;42.768;23.404;2023-06-24T16:46:47;16.27;;;12.27;;
11675;SDS011;5894;42.768;23.404;2023-06-24T16:49:14;17.63;;;12.45;;
11675;SDS011;5894;42.768;23.404;2023-06-24T16:51:42;17.05;;;13.00;;
11675;SDS011;5894;42.768;23.404;2023-06-24T16:54:09;17.00;;;12.60;;
11675;SDS011;5894;42.768;23.404;2023-06-24T16:56:36;16.20;;;11.60;;
11675;SDS011;5894;42.768;23.404;2023-06-24T16:59:03;14.40;;;11.15;;
11675;SDS011;5894;42.768;23.404;2023-06-24T17:01:31;15.07;;;11.13;;
11675;SDS011;5894;42.768;23.404;2023-06-24T17:03:58;13.80;;;9.82;;
11675;SDS011;5894;42.768;23.404;2023-06-24T17:06:25;14.02;;;10.30;;
11675;SDS011;5894;42.768;23.404;2023-06-24T17:08:52;11.52;;;9.13;;
11675;SDS011;5894;42.768;23.404;2023-06-24T17:11:22;14.45;;;9.45;;
11675;SDS011;5894;42.768;23.404;2023-06-24T17:13:49;11.02;;;8.68;;
11675;SDS011;5894;42.768;23.404;2023-06-24T17:16:16;12.20;;;9.32;;
11675;SDS011;5894;42.768;23.404;2023-06-24T17:18:45;11.75;;;10.00;;
11675;SDS011;5894;42.768;23.404;2023-06-24T17:21:12;10.77;;;9.68;;
11675;SDS011;5894;42.768;23.404;2023-06-24T17:23:39;13.80;;;10.07;;
11675;SDS011;5894;42.768;23.404;2023-06-24T17:26:06;14.27;;;9.25;;
11675;SDS011;5894;42.768;23.404;2023-06-24T17:28:33;12.68;;;9.30;;
11675;SDS011;5894;42.768;23.404;2023-06-24T17:31:00;12.57;;;9.30;;